Map

Track Data

SID SEASON NUMBER BASIN SUBBASIN NAME ISO_TIME NATURE LAT LON WMO_WIND WMO_PRES WMO_AGENCY TRACK_TYPE DIST2LAND LANDFALL IFLAG USA_AGENCY USA_ATCF_ID USA_LAT USA_LON USA_RECORD USA_STATUS USA_WIND USA_PRES USA_SSHS USA_R34_NE USA_R34_SE USA_R34_SW USA_R34_NW USA_R50_NE USA_R50_SE USA_R50_SW USA_R50_NW USA_R64_NE USA_R64_SE USA_R64_SW USA_R64_NW USA_POCI USA_ROCI USA_RMW USA_EYE TOKYO_LAT TOKYO_LON TOKYO_GRADE TOKYO_WIND TOKYO_PRES TOKYO_R50_DIR TOKYO_R50_LONG TOKYO_R50_SHORT TOKYO_R30_DIR TOKYO_R30_LONG TOKYO_R30_SHORT TOKYO_LAND CMA_LAT CMA_LON CMA_CAT CMA_WIND CMA_PRES HKO_LAT HKO_LON HKO_CAT HKO_WIND HKO_PRES NEWDELHI_LAT NEWDELHI_LON NEWDELHI_GRADE NEWDELHI_WIND NEWDELHI_PRES NEWDELHI_CI NEWDELHI_DP NEWDELHI_POCI REUNION_LAT REUNION_LON REUNION_TYPE REUNION_WIND REUNION_PRES REUNION_TNUM REUNION_CI REUNION_RMW REUNION_R34_NE REUNION_R34_SE REUNION_R34_SW REUNION_R34_NW REUNION_R50_NE REUNION_R50_SE REUNION_R50_SW REUNION_R50_NW REUNION_R64_NE REUNION_R64_SE REUNION_R64_SW REUNION_R64_NW BOM_LAT BOM_LON BOM_TYPE BOM_WIND BOM_PRES BOM_TNUM BOM_CI BOM_RMW BOM_R34_NE BOM_R34_SE BOM_R34_SW BOM_R34_NW BOM_R50_NE BOM_R50_SE BOM_R50_SW BOM_R50_NW BOM_R64_NE BOM_R64_SE BOM_R64_SW BOM_R64_NW BOM_ROCI BOM_POCI BOM_EYE BOM_POS_METHOD BOM_PRES_METHOD NADI_LAT NADI_LON NADI_CAT NADI_WIND NADI_PRES WELLINGTON_LAT WELLINGTON_LON WELLINGTON_WIND WELLINGTON_PRES DS824_LAT DS824_LON DS824_STAGE DS824_WIND DS824_PRES TD9636_LAT TD9636_LON TD9636_STAGE TD9636_WIND TD9636_PRES TD9635_LAT TD9635_LON TD9635_WIND TD9635_PRES TD9635_ROCI NEUMANN_LAT NEUMANN_LON NEUMANN_CLASS NEUMANN_WIND NEUMANN_PRES MLC_LAT MLC_LON MLC_CLASS MLC_WIND MLC_PRES USA_GUST BOM_GUST BOM_GUST_PER REUNION_GUST REUNION_GUST_PER USA_SEAHGT USA_SEARAD_NE USA_SEARAD_SE USA_SEARAD_SW USA_SEARAD_NW STORM_SPEED STORM_DIR
1870101S09087 1870 10 SI MM NOT_NAMED 1870-04-11 06:00:00 NR -8.50000 86.7000 spur-split 1551 1551 _____O________ -1 -8.50000 86.7000 99 9.90000 4 242
1870101S09087 1870 10 SI MM NOT_NAMED 1870-04-11 09:00:00 NR -8.58432 86.5408 spur-split 1576 1576 _____P________ -1 -8.58432 86.5408 99 4 242
1870101S09087 1870 10 SI MM NOT_NAMED 1870-04-11 12:00:00 NR -8.66890 86.3800 spur-split 1591 1591 _____P________ -1 -8.66890 86.3800 99 4 242
1870101S09087 1870 10 SI MM NOT_NAMED 1870-04-11 15:00:00 NR -8.75408 86.2161 spur-split 1616 1616 _____P________ -1 -8.75408 86.2161 99 4 243
1870101S09087 1870 10 SI MM NOT_NAMED 1870-04-11 18:00:00 NR -8.84017 86.0478 spur-split 1635 1635 _____P________ -1 -8.84017 86.0478 99 4 243
1870101S09087 1870 10 SI MM NOT_NAMED 1870-04-11 21:00:00 NR -8.92749 85.8736 spur-split 1650 1650 _____P________ -1 -8.92749 85.8736 99 4 243
1870101S09087 1870 10 SI MM NOT_NAMED 1870-04-12 00:00:00 NR -9.01636 85.6918 spur-split 1675 1675 _____P________ -1 -9.01636 85.6918 99 4 244
1870101S09087 1870 10 SI MM NOT_NAMED 1870-04-12 03:00:00 NR -9.10709 85.5011 spur-split 1699 1699 _____P________ -1 -9.10709 85.5011 99 4 245
1870101S09087 1870 10 SI MM NOT_NAMED 1870-04-12 06:00:00 NR -9.20000 85.3000 spur-split 1724 1724 _____O________ -1 -9.20000 85.3000 99 9.90000 5 245
1870101S09087 1870 10 SI MM NOT_NAMED 1870-04-12 09:00:00 NR -9.29547 85.0873 spur-split 1748 1748 _____P________ -1 -9.29547 85.0873 99 5 246
1870101S09087 1870 10 SI MM NOT_NAMED 1870-04-12 12:00:00 NR -9.39422 84.8631 spur-split 1773 1773 _____P________ -1 -9.39422 84.8631 99 5 246
1870101S09087 1870 10 SI MM NOT_NAMED 1870-04-12 15:00:00 NR -9.49704 84.6278 spur-split 1781 1778 _____P________ -1 -9.49704 84.6278 99 5 246
1870101S09087 1870 10 SI MM NOT_NAMED 1870-04-12 18:00:00 NR -9.60472 84.3819 spur-split 1787 1784 _____P________ -1 -9.60472 84.3819 99 5 246
1870101S09087 1870 10 SI MM NOT_NAMED 1870-04-12 21:00:00 NR -9.71806 84.1257 spur-split 1790 1790 _____P________ -1 -9.71806 84.1257 99 6 246
1870101S09087 1870 10 SI MM NOT_NAMED 1870-04-13 00:00:00 NR -9.83785 83.8598 spur-split 1796 1794 _____P________ -1 -9.83785 83.8598 99 6 245
1870101S09087 1870 10 SI MM NOT_NAMED 1870-04-13 03:00:00 NR -9.96490 83.5844 spur-split 1812 1808 _____P________ -1 -9.96490 83.5844 99 6 245
1870101S09087 1870 10 SI MM NOT_NAMED 1870-04-13 06:00:00 NR -10.1000 83.3000 spur-split 1817 1815 _____O________ -1 -10.1000 83.3000 99 9.90000 6 244
1870101S09087 1870 10 SI MM NOT_NAMED 1870-04-13 09:00:00 NR -10.2419 83.0126 spur-split 1823 1823 _____P________ -1 -10.2419 83.0126 99 6 243
1870101S09087 1870 10 SI MM NOT_NAMED 1870-04-13 12:00:00 NR -10.3921 82.7149 spur-split 1841 1839 _____P________ -1 -10.3921 82.7149 99 7 243
1870101S09087 1870 10 SI MM NOT_NAMED 1870-04-13 15:00:00 NR -10.5493 82.4084 spur-split 1848 1848 _____P________ -1 -10.5493 82.4084 99 7 242
1870101S09087 1870 10 SI MM NOT_NAMED 1870-04-13 18:00:00 NR -10.7124 82.0947 spur-split 1867 1866 _____P________ -1 -10.7124 82.0947 99 7 242
1870101S09087 1870 10 SI MM NOT_NAMED 1870-04-13 21:00:00 NR -10.8801 81.7754 spur-split 1887 1886 _____P________ -1 -10.8801 81.7754 99 7 242
1870101S09087 1870 10 SI MM NOT_NAMED 1870-04-14 00:00:00 NR -11.0514 81.4522 spur-split 1907 1906 _____P________ -1 -11.0514 81.4522 99 7 242
1870101S09087 1870 10 SI MM NOT_NAMED 1870-04-14 03:00:00 NR -11.2251 81.1265 spur-split 1916 1916 _____P________ -1 -11.2251 81.1265 99 7 241
1870101S09087 1870 10 SI MM NOT_NAMED 1870-04-14 06:00:00 NR -11.4000 80.8000 spur-split 1938 1938 _____O________ -1 -11.4000 80.8000 99 9.90000 7 242
1870101S09087 1870 10 SI MM NOT_NAMED 1870-04-14 09:00:00 NR -11.5606 80.4755 spur-split 1960 1960 _____P________ -1 -11.5606 80.4755 99 7 243
1870101S09087 1870 10 SI MM NOT_NAMED 1870-04-14 12:00:00 NR -11.7223 80.1484 spur-split 1972 1972 _____P________ -1 -11.7223 80.1484 99 7 243
1870101S09087 1870 10 SI MM NOT_NAMED 1870-04-14 15:00:00 NR -11.8865 79.8200 spur-split 1996 1996 _____P________ -1 -11.8865 79.8200 99 7 243
1870101S09087 1870 10 SI MM NOT_NAMED 1870-04-14 18:00:00 NR -12.0547 79.4915 spur-split 2020 2020 _____P________ -1 -12.0547 79.4915 99 7 242
1870101S09087 1870 10 SI MM NOT_NAMED 1870-04-14 21:00:00 NR -12.2287 79.1640 spur-split 2033 2033 _____P________ -1 -12.2287 79.1640 99 7 241
1870101S09087 1870 10 SI MM NOT_NAMED 1870-04-15 00:00:00 NR -12.4098 78.8389 spur-split 2060 2060 _____P________ -1 -12.4098 78.8389 99 7 240
1870101S09087 1870 10 SI MM NOT_NAMED 1870-04-15 03:00:00 NR -12.5997 78.5171 spur-split 2085 2085 _____P________ -1 -12.5997 78.5171 99 7 238
1870101S09087 1870 10 SI MM NOT_NAMED 1870-04-15 06:00:00 NR -12.8000 78.2000 reunion spur-split 2111 2111 _____O________ -1 -12.8000 78.2000 99 9.90000 8 237
1870101S09087 1870 10 SI MM NOT_NAMED 1870-04-15 09:00:00 NR -13.0162 77.8642 spur-split 2138 2138 _____P________ -1 -13.0162 77.8642 99 8 236
1870101S09087 1870 10 SI MM NOT_NAMED 1870-04-15 12:00:00 NR -13.2433 77.5294 spur-split 2167 2167 _____P________ -1 -13.2433 77.5294 99 8 234
1870101S09087 1870 10 SI MM NOT_NAMED 1870-04-15 15:00:00 NR -13.4788 77.2001 spur-split 2198 2159 _____P________ -1 -13.4788 77.2001 99 8 233
1870101S09087 1870 10 SI MM NOT_NAMED 1870-04-15 18:00:00 NR -13.7204 76.8810 spur-split 2159 2116 _____P________ -1 -13.7204 76.8810 99 8 231
1870101S09087 1870 10 SI MM NOT_NAMED 1870-04-15 21:00:00 NR -13.9657 76.5767 spur-split 2116 2078 _____P________ -1 -13.9657 76.5767 99 8 229
1870101S09087 1870 10 SI MM NOT_NAMED 1870-04-16 00:00:00 NR -14.2122 76.2920 spur-split 2078 2040 _____P________ -1 -14.2122 76.2920 99 7 227
1870101S09087 1870 10 SI MM NOT_NAMED 1870-04-16 03:00:00 NR -14.4578 76.0315 spur-split 2035 2007 _____P________ -1 -14.4578 76.0315 99 7 224
1870101S09087 1870 10 SI MM NOT_NAMED 1870-04-16 06:00:00 NR -14.7000 75.8000 reunion spur-split 2007 1979 _____O________ -1 -14.7000 75.8000 99 9.90000 6 223
1870101S09087 1870 10 SI MM NOT_NAMED 1870-04-16 09:00:00 NR -14.9196 75.5922 spur-split 1979 1951 _____P________ -1 -14.9196 75.5922 99 6 221
1870101S09087 1870 10 SI MM NOT_NAMED 1870-04-16 12:00:00 NR -15.1361 75.4120 spur-split 1951 1934 _____P________ -1 -15.1361 75.4120 99 5 217
1870101S09087 1870 10 SI MM NOT_NAMED 1870-04-16 15:00:00 NR -15.3518 75.2575 spur-split 1930 1903 _____P________ -1 -15.3518 75.2575 99 5 212
1870101S09087 1870 10 SI MM NOT_NAMED 1870-04-16 18:00:00 NR -15.5691 75.1267 spur-split 1903 1885 _____P________ -1 -15.5691 75.1267 99 5 208
1870101S09087 1870 10 SI MM NOT_NAMED 1870-04-16 21:00:00 NR -15.7903 75.0175 spur-split 1885 1868 _____P________ -1 -15.7903 75.0175 99 5 203
1870101S09087 1870 10 SI MM NOT_NAMED 1870-04-17 00:00:00 NR -16.0176 74.9280 spur-split 1868 1862 _____P________ -1 -16.0176 74.9280 99 5 198
1870101S09087 1870 10 SI MM NOT_NAMED 1870-04-17 03:00:00 NR -16.2534 74.8562 spur-split 1858 1842 _____P________ -1 -16.2534 74.8562 99 5 195
1870101S09087 1870 10 SI MM NOT_NAMED 1870-04-17 06:00:00 NR -16.5000 74.8000 reunion spur-split 1842 1823 _____O________ -1 -16.5000 74.8000 99 9.90000 5 193
1870101S09087 1870 10 SI MM NOT_NAMED 1870-04-17 09:00:00 NR -16.7699 74.7284 spur-split 1823 1817 _____P________ -1 -16.7699 74.7284 99 6 192
1870101S09087 1870 10 SI MM NOT_NAMED 1870-04-17 12:00:00 NR -17.0510 74.6738 spur-split 1814 1799 _____P________ -1 -17.0510 74.6738 99 6 189
1870101S09087 1870 10 SI MM NOT_NAMED 1870-04-17 15:00:00 NR -17.3403 74.6361 spur-split 1799 1791 _____P________ -1 -17.3403 74.6361 99 6 186
1870101S09087 1870 10 SI MM NOT_NAMED 1870-04-17 18:00:00 NR -17.6347 74.6153 spur-split 1791 1784 _____P________ -1 -17.6347 74.6153 99 6 181
1870101S09087 1870 10 SI MM NOT_NAMED 1870-04-17 21:00:00 NR -17.9310 74.6113 spur-split 1784 1778 _____P________ -1 -17.9310 74.6113 99 6 0
1870101S09087 1870 10 SI MM NOT_NAMED 1870-04-18 00:00:00 NR -18.2260 74.6241 spur-split 1778 1772 _____P________ -1 -18.2260 74.6241 99 6 177
1870101S09087 1870 10 SI MM NOT_NAMED 1870-04-18 03:00:00 NR -18.5168 74.6537 spur-split 1783 1777 _____P________ -1 -18.5168 74.6537 99 6 174
1870101S09087 1870 10 SI MM NOT_NAMED 1870-04-18 06:00:00 NR -18.8000 74.7000 reunion spur-split 1777 1774 _____O________ -1 -18.8000 74.7000 99 9.90000 6 171
1870101S09087 1870 10 SI MM NOT_NAMED 1870-04-18 09:00:00 NR -19.0639 74.7485 spur-split 1773 1773 _____P________ -1 -19.0639 74.7485 99 5 168
1870101S09087 1870 10 SI MM NOT_NAMED 1870-04-18 12:00:00 NR -19.3215 74.8149 spur-split 1781 1779 _____P________ -1 -19.3215 74.8149 99 5 164
1870101S09087 1870 10 SI MM NOT_NAMED 1870-04-18 15:00:00 NR -19.5739 74.8977 spur-split 1788 1787 _____P________ -1 -19.5739 74.8977 99 5 162
1870101S09087 1870 10 SI MM NOT_NAMED 1870-04-18 18:00:00 NR -19.8223 74.9951 spur-split 1796 1795 _____P________ -1 -19.8223 74.9951 99 5 159
1870101S09087 1870 10 SI MM NOT_NAMED 1870-04-18 21:00:00 NR -20.0680 75.1057 spur-split 1804 1804 _____P________ -1 -20.0680 75.1057 99 5 156
1870101S09087 1870 10 SI MM NOT_NAMED 1870-04-19 00:00:00 NR -20.3120 75.2278 spur-split 1813 1813 _____P________ -1 -20.3120 75.2278 99 5 154
1870101S09087 1870 10 SI MM NOT_NAMED 1870-04-19 03:00:00 NR -20.5556 75.3598 spur-split 1832 1832 _____P________ -1 -20.5556 75.3598 99 6 152
1870101S09087 1870 10 SI MM NOT_NAMED 1870-04-19 06:00:00 NR -20.8000 75.5000 reunion spur-split 1842 1842 _____O________ -1 -20.8000 75.5000 99 9.90000 5 155
1870101S09087 1870 10 SI MM NOT_NAMED 1870-04-19 09:00:00 NR -21.0165 75.5905 spur-split 1852 1852 _____P________ -1 -21.0165 75.5905 99 5 158
1870101S09087 1870 10 SI MM NOT_NAMED 1870-04-19 12:00:00 NR -21.2289 75.6853 spur-split 1862 1862 _____P________ -1 -21.2289 75.6853 99 5 156
1870101S09087 1870 10 SI MM NOT_NAMED 1870-04-19 15:00:00 NR -21.4441 75.7925 spur-split 1873 1873 _____P________ -1 -21.4441 75.7925 99 5 153
1870101S09087 1870 10 SI MM NOT_NAMED 1870-04-19 18:00:00 NR -21.6689 75.9201 spur-split 1884 1884 _____P________ -1 -21.6689 75.9201 99 5 151
1870101S09087 1870 10 SI MM NOT_NAMED 1870-04-19 21:00:00 NR -21.9101 76.0763 spur-split 1905 1905 _____P________ -1 -21.9101 76.0763 99 6 147
1870101S09087 1870 10 SI MM NOT_NAMED 1870-04-20 00:00:00 NR -22.1746 76.2693 spur-split 1927 1927 _____P________ -1 -22.1746 76.2693 99 7 144
1870101S09087 1870 10 SI MM NOT_NAMED 1870-04-20 03:00:00 NR -22.4689 76.5077 spur-split 1949 1949 _____P________ -1 -22.4689 76.5077 99 8 142
1870101S09087 1870 10 SI MM NOT_NAMED 1870-04-20 06:00:00 NR -22.8000 76.8000 reunion spur-split 1982 1982 _____O________ -1 -22.8000 76.8000 99 9.90000 10 140
1870101S09087 1870 10 SI MM NOT_NAMED 1870-04-20 09:00:00 NR -23.2262 77.1989 spur-split 2027 2027 _____P________ -1 -23.2262 77.1989 99 12 139
1870101S09087 1870 10 SI MM NOT_NAMED 1870-04-20 12:00:00 NR -23.6931 77.6590 spur-split 2084 2084 _____P________ -1 -23.6931 77.6590 99 13 137
1870101S09087 1870 10 SI MM NOT_NAMED 1870-04-20 15:00:00 NR -24.1854 78.1649 spur-split 2141 2141 _____P________ -1 -24.1854 78.1649 99 14 136
1870101S09087 1870 10 SI MM NOT_NAMED 1870-04-20 18:00:00 NR -24.6878 78.7004 spur-split 2199 2199 _____P________ -1 -24.6878 78.7004 99 14 135
1870101S09087 1870 10 SI MM NOT_NAMED 1870-04-20 21:00:00 NR -25.1851 79.2490 spur-split 2258 2258 _____P________ -1 -25.1851 79.2490 99 14 135
1870101S09087 1870 10 SI MM NOT_NAMED 1870-04-21 00:00:00 NR -25.6626 79.7936 spur-split 2327 2327 _____P________ -1 -25.6626 79.7936 99 13 134
1870101S09087 1870 10 SI MM NOT_NAMED 1870-04-21 03:00:00 NR -26.1057 80.3166 spur-split 2384 2384 _____P________ -1 -26.1057 80.3166 99 12 133
1870101S09087 1870 10 SI MM NOT_NAMED 1870-04-21 06:00:00 NR -26.5000 80.8000 spur-split 2442 2442 _____O________ -1 -26.5000 80.8000 99 9.90000 11 132
1870101S09087 1870 10 SI MM NOT_NAMED 1870-04-21 09:00:00 NR -26.8353 81.2296 spur-split 2487 2487 _____P________ -1 -26.8353 81.2296 99 10 131
1870101S09087 1870 10 SI MM NOT_NAMED 1870-04-21 12:00:00 NR -27.1162 81.6078 spur-split 2533 2533 _____P________ -1 -27.1162 81.6078 99 8 129
1870101S09087 1870 10 SI MM NOT_NAMED 1870-04-21 15:00:00 NR -27.3506 81.9417 spur-split 2569 2569 _____P________ -1 -27.3506 81.9417 99 7 128
1870101S09087 1870 10 SI MM NOT_NAMED 1870-04-21 18:00:00 NR -27.5466 82.2382 spur-split 2600 2590 _____P________ -1 -27.5466 82.2382 99 6 126
1870101S09087 1870 10 SI MM NOT_NAMED 1870-04-21 21:00:00 NR -27.7118 82.5048 spur-split 2593 2586 _____P________ -1 -27.7118 82.5048 99 5 124
1870101S09087 1870 10 SI MM NOT_NAMED 1870-04-22 00:00:00 NR -27.8541 82.7489 spur-split 2579 2575 _____P________ -1 -27.8541 82.7489 99 5 123
1870101S09087 1870 10 SI MM NOT_NAMED 1870-04-22 03:00:00 NR -27.9809 82.9780 spur-split 2579 2572 _____P________ -1 -27.9809 82.9780 99 5 122
1870101S09087 1870 10 SI MM NOT_NAMED 1870-04-22 06:00:00 NR -28.1000 83.2000 spur-split 2575 _____O________ -1 -28.1000 83.2000 99 9.90000 5 122

About IBTrACS Database

This database is a web-friendly format of International Best Track Archive for Climate Stewardship (IBTrACS), a global best track data archive curated by NOAA dating back to 1842.

Updated: 2021-12-06